Time;durP1;ratioP1;P1;durP2;ratioP2;P2;SDS_P1;SDS_P2;PMS_P1;PMS_P2;Temp;Humidity;BMP_temperature;BMP_pressure;BME280_temperature;BME280_humidity;BME280_pressure;Samples;Min_cycle;Max_cycle;Signal;HPM_P1;HPM_P2
2022/05/15 00:02:04;;;;;;;;;;;14.30;60.10;;;;;;5092003;28;19980;-73
2022/05/15 00:04:29;;;;;;;;;;;14.30;60.00;;;;;;5092268;28;20355;-73
2022/05/15 00:06:55;;;;;;;;;;;14.30;60.20;;;;;;5073404;28;19908;-73
2022/05/15 00:09:20;;;;;;;;;;;14.30;60.30;;;;;;5091228;28;19912;-65
2022/05/15 00:11:47;;;;;;;;;;;14.30;60.20;;;;;;5091066;28;19944;-73
2022/05/15 00:14:12;;;;;;;;;;;14.40;60.10;;;;;;5091415;28;19908;-75
2022/05/15 00:16:38;;;;;;;;;;;14.40;60.20;;;;;;5073174;28;20020;-73
2022/05/15 00:19:03;;;;;;;;;;;14.40;60.10;;;;;;5091519;28;19960;-74
2022/05/15 00:21:30;;;;;;;;;;;14.50;60.10;;;;;;5091424;28;19942;-74
2022/05/15 00:23:56;;;;;;;;;;;14.50;60.00;;;;;;5091379;28;19974;-74
2022/05/15 00:26:21;;;;;;;;;;;14.50;60.10;;;;;;5091359;28;19940;-74
2022/05/15 00:28:47;;;;;;;;;;;14.50;60.20;;;;;;5073059;28;20089;-74
2022/05/15 00:31:13;;;;;;;;;;;14.50;60.00;;;;;;5072981;28;19969;-73
2022/05/15 00:33:39;;;;;;;;;;;14.50;60.00;;;;;;5072708;28;20011;-73
2022/05/15 00:36:04;;;;;;;;;;;14.50;60.10;;;;;;5072905;28;19912;-75
2022/05/15 00:38:30;;;;;;;;;;;14.40;60.20;;;;;;5091043;28;19999;-74
2022/05/15 00:40:56;;;;;;;;;;;14.40;60.30;;;;;;5090951;28;19916;-75
2022/05/15 00:43:40;;;;;;;;;;;14.40;60.30;;;;;;5072896;28;19999;-74
2022/05/15 00:46:08;;;;;;;;;;;14.40;60.30;;;;;;5072454;28;19969;-74
2022/05/15 00:48:33;;;;;;;;;;;14.40;60.50;;;;;;5090922;28;20523;-74
2022/05/15 00:51:01;;;;;;;;;;;14.40;60.50;;;;;;5072585;28;19916;-72
2022/05/15 00:53:27;;;;;;;;;;;14.40;60.50;;;;;;5090310;28;20310;-74
2022/05/15 00:55:52;;;;;;;;;;;14.40;60.50;;;;;;5090830;28;19919;-74
2022/05/15 00:58:23;;;;;;;;;;;14.50;60.50;;;;;;5090753;28;20003;-74
2022/05/15 01:00:49;;;;;;;;;;;14.50;60.30;;;;;;5072400;28;19932;-75
2022/05/15 01:03:18;;;;;;;;;;;14.60;60.20;;;;;;5072500;28;19954;-75
2022/05/15 01:05:46;;;;;;;;;;;14.50;60.20;;;;;;5073083;28;20265;-74
2022/05/15 01:08:12;;;;;;;;;;;14.50;60.40;;;;;;5090302;28;19912;-73
2022/05/15 01:10:40;;;;;;;;;;;14.40;60.60;;;;;;5072494;28;19916;-73
2022/05/15 01:13:06;;;;;;;;;;;14.50;60.60;;;;;;5072188;28;19912;-72
2022/05/15 01:15:31;;;;;;;;;;;14.50;60.60;;;;;;5090343;28;19916;-73
2022/05/15 01:17:57;;;;;;;;;;;14.50;60.60;;;;;;5072187;28;19921;-74
2022/05/15 01:20:24;;;;;;;;;;;14.40;60.70;;;;;;5090386;28;19997;-74
2022/05/15 01:22:50;;;;;;;;;;;14.50;60.80;;;;;;5090489;28;19915;-74
2022/05/15 01:25:20;;;;;;;;;;;14.40;60.80;;;;;;5090679;28;20264;-73
2022/05/15 01:27:49;;;;;;;;;;;14.40;60.80;;;;;;5090316;28;20287;-73
2022/05/15 01:30:15;;;;;;;;;;;14.40;60.80;;;;;;5090504;28;20297;-74
2022/05/15 01:32:41;;;;;;;;;;;14.40;60.90;;;;;;5090102;28;19908;-74
2022/05/15 01:35:06;;;;;;;;;;;14.40;60.80;;;;;;5090118;28;19914;-74
2022/05/15 01:37:32;;;;;;;;;;;14.40;60.80;;;;;;5090034;28;19961;-74
2022/05/15 01:39:58;;;;;;;;;;;14.30;60.80;;;;;;5090033;28;19961;-72
2022/05/15 01:42:24;;;;;;;;;;;14.20;60.80;;;;;;5090455;28;19977;-73
2022/05/15 01:44:50;;;;;;;;;;;14.10;61.00;;;;;;5071606;28;20167;-74
2022/05/15 01:47:16;;;;;;;;;;;14.20;61.10;;;;;;5089087;28;19931;-74
2022/05/15 01:49:41;;;;;;;;;;;14.30;61.00;;;;;;5089169;28;20408;-72
2022/05/15 01:52:07;;;;;;;;;;;14.30;60.80;;;;;;5089763;28;20353;-74
2022/05/15 01:54:32;;;;;;;;;;;14.40;60.70;;;;;;5089688;28;19939;-74
2022/05/15 01:56:58;;;;;;;;;;;14.40;60.70;;;;;;5089564;28;19916;-73
2022/05/15 01:59:24;;;;;;;;;;;14.50;60.70;;;;;;5089597;28;20346;-75
2022/05/15 02:01:49;;;;;;;;;;;14.40;60.50;;;;;;5071452;28;19920;-70
2022/05/15 02:04:15;;;;;;;;;;;14.30;60.60;;;;;;5070439;28;20007;-74
2022/05/15 02:06:40;;;;;;;;;;;14.20;60.80;;;;;;5089827;28;19912;-74
2022/05/15 02:09:06;;;;;;;;;;;14.10;60.80;;;;;;5071032;28;19959;-74
2022/05/15 02:11:32;;;;;;;;;;;14.00;60.90;;;;;;5054355;28;19927;-75
2022/05/15 02:13:58;;;;;;;;;;;13.90;61.00;;;;;;5089200;28;20438;-74
2022/05/15 02:16:24;;;;;;;;;;;13.90;61.00;;;;;;5071082;28;19920;-73
2022/05/15 02:18:49;;;;;;;;;;;13.90;61.00;;;;;;5089076;28;19919;-75
2022/05/15 02:21:15;;;;;;;;;;;13.90;61.00;;;;;;5070973;28;19916;-75
2022/05/15 02:23:40;;;;;;;;;;;13.90;61.00;;;;;;5070761;28;19963;-74
2022/05/15 02:26:06;;;;;;;;;;;14.00;60.90;;;;;;5070792;28;19988;-73
2022/05/15 02:28:31;;;;;;;;;;;13.90;60.80;;;;;;5070795;28;20342;-74
2022/05/15 02:30:57;;;;;;;;;;;13.90;60.80;;;;;;5070767;28;19919;-75
2022/05/15 02:33:22;;;;;;;;;;;13.90;60.90;;;;;;5070933;28;19920;-73
2022/05/15 02:35:48;;;;;;;;;;;14.00;60.80;;;;;;5088882;28;19912;-73
2022/05/15 02:38:14;;;;;;;;;;;14.00;60.70;;;;;;5070551;28;19943;-74
2022/05/15 02:40:39;;;;;;;;;;;14.00;60.60;;;;;;5088776;28;20004;-75
2022/05/15 02:43:05;;;;;;;;;;;14.00;60.60;;;;;;5088732;28;19955;-73
2022/05/15 02:45:30;;;;;;;;;;;14.00;60.60;;;;;;5070611;28;19912;-74
2022/05/15 02:47:56;;;;;;;;;;;14.00;61.10;;;;;;5088411;28;20302;-74
2022/05/15 02:53:08;;;;;;;;;;;13.90;60.60;;;;;;5088880;28;19958;-74
2022/05/15 02:55:33;;;;;;;;;;;13.90;60.50;;;;;;5088460;28;19912;-76
2022/05/15 02:57:59;;;;;;;;;;;13.70;60.50;;;;;;5088577;28;19909;-74
2022/05/15 03:00:26;;;;;;;;;;;13.60;60.70;;;;;;5088473;28;20366;-75
2022/05/15 03:02:52;;;;;;;;;;;13.40;60.90;;;;;;5089514;28;19969;-74
2022/05/15 03:05:18;;;;;;;;;;;13.30;61.10;;;;;;5088568;28;19908;-74
2022/05/15 03:07:44;;;;;;;;;;;13.20;61.30;;;;;;5088203;28;19916;-73
2022/05/15 03:10:11;;;;;;;;;;;13.20;61.40;;;;;;5088182;28;19916;-74
2022/05/15 03:12:37;;;;;;;;;;;13.30;61.40;;;;;;5088147;28;20266;-75
2022/05/15 03:15:03;;;;;;;;;;;13.40;61.40;;;;;;5088043;28;19915;-74
2022/05/15 03:17:28;;;;;;;;;;;13.50;61.30;;;;;;5088106;28;19944;-74
2022/05/15 03:19:54;;;;;;;;;;;13.70;61.30;;;;;;5070255;28;20381;-74
2022/05/15 03:22:19;;;;;;;;;;;13.80;61.20;;;;;;5088837;28;20358;-73
2022/05/15 03:24:45;;;;;;;;;;;13.90;61.10;;;;;;5088140;28;20011;-73
2022/05/15 03:27:10;;;;;;;;;;;13.90;61.00;;;;;;5087794;28;19908;-74
2022/05/15 03:29:36;;;;;;;;;;;14.00;61.00;;;;;;5069922;28;19924;-74
2022/05/15 03:32:02;;;;;;;;;;;14.00;61.00;;;;;;5088005;28;19930;-73
2022/05/15 03:34:27;;;;;;;;;;;14.00;61.10;;;;;;5069798;28;20378;-73
2022/05/15 03:36:53;;;;;;;;;;;13.90;61.00;;;;;;5087974;28;20006;-74
2022/05/15 03:39:19;;;;;;;;;;;13.80;61.10;;;;;;5069807;28;19908;-74
2022/05/15 03:41:46;;;;;;;;;;;13.70;61.20;;;;;;5087940;28;19999;-73
2022/05/15 03:44:12;;;;;;;;;;;13.60;61.30;;;;;;5088060;28;20308;-73
2022/05/15 03:46:39;;;;;;;;;;;13.50;61.40;;;;;;5069566;28;19916;-74
2022/05/15 03:49:04;;;;;;;;;;;13.50;61.60;;;;;;5087733;28;20378;-74
2022/05/15 03:51:30;;;;;;;;;;;13.50;61.60;;;;;;5087975;28;19916;-76
2022/05/15 03:53:56;;;;;;;;;;;13.60;61.50;;;;;;5087935;28;19920;-74
2022/05/15 03:56:49;;;;;;;;;;;13.60;61.40;;;;;;5087717;28;19991;-73
2022/05/15 03:59:08;;;;;;;;;;;13.70;61.40;;;;;;5087667;28;19916;-73
2022/05/15 04:01:33;;;;;;;;;;;13.70;61.30;;;;;;5087805;28;19916;-72
2022/05/15 04:03:59;;;;;;;;;;;13.80;61.30;;;;;;5087766;28;19974;-73
2022/05/15 04:06:25;;;;;;;;;;;13.70;61.20;;;;;;5069676;28;20003;-73
2022/05/15 04:08:51;;;;;;;;;;;13.60;61.30;;;;;;5087686;28;19909;-74
2022/05/15 04:11:17;;;;;;;;;;;13.50;61.50;;;;;;5069739;28;19920;-73
2022/05/15 04:13:43;;;;;;;;;;;13.50;61.60;;;;;;5069506;28;19923;-74
2022/05/15 04:16:09;;;;;;;;;;;13.50;61.60;;;;;;5087812;28;19908;-75
2022/05/15 04:18:35;;;;;;;;;;;13.60;61.60;;;;;;5087554;28;20026;-74
2022/05/15 04:21:01;;;;;;;;;;;13.60;61.60;;;;;;5087587;28;20363;-75
2022/05/15 04:23:27;;;;;;;;;;;13.60;61.60;;;;;;5087590;28;20003;-74
2022/05/15 04:25:52;;;;;;;;;;;13.60;61.70;;;;;;5087764;28;19965;-75
2022/05/15 04:28:18;;;;;;;;;;;13.60;61.80;;;;;;5072028;28;19934;-73
2022/05/15 04:30:43;;;;;;;;;;;13.60;61.70;;;;;;5091243;28;19966;-72
2022/05/15 04:33:09;;;;;;;;;;;13.70;61.70;;;;;;5091253;28;20244;-73
2022/05/15 04:35:34;;;;;;;;;;;13.60;61.70;;;;;;5091217;28;19916;-74
2022/05/15 04:38:00;;;;;;;;;;;13.60;61.80;;;;;;5091218;28;19923;-73
2022/05/15 04:40:25;;;;;;;;;;;13.60;61.90;;;;;;5091124;28;19912;-73
2022/05/15 04:42:51;;;;;;;;;;;13.70;61.80;;;;;;5072670;28;20286;-73
2022/05/15 04:45:17;;;;;;;;;;;13.80;61.80;;;;;;5091104;28;20274;-74
2022/05/15 04:47:43;;;;;;;;;;;13.80;61.70;;;;;;5090864;28;20017;-74
2022/05/15 04:50:09;;;;;;;;;;;13.90;61.70;;;;;;5072673;28;20401;-75
2022/05/15 04:52:34;;;;;;;;;;;13.90;61.60;;;;;;5090996;28;19913;-74
2022/05/15 04:55:00;;;;;;;;;;;14.00;61.60;;;;;;5090915;28;19916;-75
2022/05/15 04:57:25;;;;;;;;;;;14.00;61.60;;;;;;5091149;28;20239;-74
2022/05/15 04:59:51;;;;;;;;;;;14.00;61.60;;;;;;5090850;28;19916;-74
2022/05/15 05:02:16;;;;;;;;;;;13.80;61.60;;;;;;5090752;28;19915;-74
2022/05/15 05:04:42;;;;;;;;;;;13.70;61.70;;;;;;5090716;28;19957;-72
2022/05/15 05:07:08;;;;;;;;;;;13.70;61.90;;;;;;5090615;28;19973;-73
2022/05/15 05:09:34;;;;;;;;;;;13.60;62.00;;;;;;5090771;28;19935;-75
2022/05/15 05:12:00;;;;;;;;;;;13.60;62.10;;;;;;5072510;28;19912;-73
2022/05/15 05:14:25;;;;;;;;;;;13.50;62.10;;;;;;5090618;28;19914;-74
2022/05/15 05:16:51;;;;;;;;;;;13.50;62.20;;;;;;5090359;28;20358;-73
2022/05/15 05:19:16;;;;;;;;;;;13.50;62.20;;;;;;5072349;28;19935;-74
2022/05/15 05:21:42;;;;;;;;;;;13.60;62.20;;;;;;5090409;28;19919;-74
2022/05/15 05:24:08;;;;;;;;;;;13.60;62.20;;;;;;5090520;28;19916;-72
2022/05/15 05:26:34;;;;;;;;;;;13.60;62.20;;;;;;5090294;28;19912;-73
2022/05/15 05:29:00;;;;;;;;;;;13.60;62.20;;;;;;5090192;28;19912;-74
2022/05/15 05:31:25;;;;;;;;;;;13.60;62.20;;;;;;5090137;28;19970;-73
2022/05/15 05:33:51;;;;;;;;;;;13.80;62.30;;;;;;5090148;28;19953;-74
2022/05/15 05:36:17;;;;;;;;;;;13.90;62.20;;;;;;5089961;28;19915;-74
2022/05/15 05:38:42;;;;;;;;;;;14.10;62.00;;;;;;5088681;28;20319;-74
2022/05/15 05:41:08;;;;;;;;;;;14.20;61.80;;;;;;5089981;28;20393;-74
2022/05/15 05:43:33;;;;;;;;;;;14.40;61.70;;;;;;5090023;28;19908;-74
2022/05/15 05:45:59;;;;;;;;;;;14.40;61.70;;;;;;5089918;28;19908;-74
2022/05/15 05:48:25;;;;;;;;;;;14.40;61.70;;;;;;5089347;28;19920;-74
2022/05/15 05:50:51;;;;;;;;;;;14.40;61.90;;;;;;5088965;28;20393;-66
2022/05/15 05:53:16;;;;;;;;;;;14.40;62.00;;;;;;5089659;28;19912;-74
2022/05/15 05:55:42;;;;;;;;;;;14.50;61.90;;;;;;5071515;28;20003;-73
2022/05/15 05:58:07;;;;;;;;;;;14.60;61.80;;;;;;5089742;28;19928;-74
2022/05/15 06:00:34;;;;;;;;;;;14.70;61.80;;;;;;5089583;28;19943;-76
2022/05/15 06:05:45;;;;;;;;;;;14.80;61.80;;;;;;5090117;28;19934;-73
2022/05/15 06:08:10;;;;;;;;;;;14.90;61.80;;;;;;5089405;28;20411;-73
2022/05/15 06:10:36;;;;;;;;;;;14.90;61.70;;;;;;5088938;28;20011;-75
2022/05/15 06:13:02;;;;;;;;;;;15.00;61.80;;;;;;5089242;28;19912;-73
2022/05/15 06:15:27;;;;;;;;;;;15.00;61.90;;;;;;5089316;28;20035;-73
2022/05/15 06:17:54;;;;;;;;;;;15.10;61.80;;;;;;5089211;28;19915;-73
2022/05/15 06:20:19;;;;;;;;;;;15.20;61.70;;;;;;5089235;28;20007;-73
2022/05/15 06:22:45;;;;;;;;;;;15.20;61.60;;;;;;5089557;28;20019;-75
2022/05/15 06:25:11;;;;;;;;;;;15.10;61.90;;;;;;5089201;28;20417;-74
2022/05/15 06:27:39;;;;;;;;;;;15.20;62.20;;;;;;5070756;28;20310;-74
2022/05/15 06:30:05;;;;;;;;;;;15.20;62.00;;;;;;5070739;28;19963;-75
2022/05/15 06:32:31;;;;;;;;;;;15.20;62.10;;;;;;5089071;28;19912;-75
2022/05/15 06:34:56;;;;;;;;;;;15.20;62.10;;;;;;5070670;28;19916;-75
2022/05/15 06:37:22;;;;;;;;;;;15.20;62.40;;;;;;5088445;28;19948;-75
2022/05/15 06:39:48;;;;;;;;;;;15.40;62.60;;;;;;5088879;28;19916;-74
2022/05/15 06:42:14;;;;;;;;;;;15.60;62.40;;;;;;5088927;28;19908;-74
2022/05/15 06:44:39;;;;;;;;;;;15.70;62.20;;;;;;5070843;28;20362;-75
2022/05/15 06:47:05;;;;;;;;;;;15.70;62.30;;;;;;5070239;28;20366;-75
2022/05/15 06:49:30;;;;;;;;;;;15.80;62.50;;;;;;5088286;28;19970;-74
2022/05/15 06:51:56;;;;;;;;;;;15.90;62.30;;;;;;5088885;28;20370;-75
2022/05/15 06:54:22;;;;;;;;;;;16.10;62.20;;;;;;5088756;28;19912;-74
2022/05/15 06:59:32;;;;;;;;;;;16.30;62.10;;;;;;5088408;28;20040;-75
2022/05/15 07:01:58;;;;;;;;;;;16.40;62.20;;;;;;5088292;28;19965;-73
2022/05/15 07:04:24;;;;;;;;;;;16.50;62.20;;;;;;5088263;28;19955;-76
2022/05/15 07:06:49;;;;;;;;;;;16.70;62.20;;;;;;5088035;28;19919;-73
2022/05/15 07:09:15;;;;;;;;;;;17.00;62.20;;;;;;5088358;28;20529;-75
2022/05/15 07:11:41;;;;;;;;;;;17.30;62.30;;;;;;5070087;28;19939;-74
2022/05/15 07:14:08;;;;;;;;;;;17.50;62.10;;;;;;5070026;28;19947;-74
2022/05/15 07:16:34;;;;;;;;;;;17.80;62.10;;;;;;5070476;28;19913;-73
2022/05/15 07:18:59;;;;;;;;;;;18.00;61.80;;;;;;5087993;28;19920;-73
2022/05/15 07:21:25;;;;;;;;;;;18.10;61.90;;;;;;5088269;28;20269;-73
2022/05/15 07:23:51;;;;;;;;;;;18.20;61.90;;;;;;5088192;28;20285;-73
2022/05/15 07:26:16;;;;;;;;;;;18.10;61.90;;;;;;5069772;28;20286;-73
2022/05/15 07:28:42;;;;;;;;;;;18.10;62.00;;;;;;5087977;28;20025;-75
2022/05/15 07:31:07;;;;;;;;;;;18.10;62.00;;;;;;5087738;28;19924;-74
2022/05/15 07:33:33;;;;;;;;;;;18.00;62.20;;;;;;5088177;28;19915;-73
2022/05/15 07:35:58;;;;;;;;;;;18.00;62.10;;;;;;5087743;28;19938;-74
2022/05/15 07:38:24;;;;;;;;;;;17.80;62.20;;;;;;5087754;28;19995;-72
2022/05/15 07:40:50;;;;;;;;;;;17.70;62.40;;;;;;5069725;28;19912;-74
2022/05/15 07:43:16;;;;;;;;;;;17.70;62.80;;;;;;5069751;28;19916;-74
2022/05/15 07:45:41;;;;;;;;;;;18.10;63.70;;;;;;5088101;28;19948;-74
2022/05/15 07:48:07;;;;;;;;;;;19.00;63.50;;;;;;5087683;28;19965;-74
2022/05/15 07:50:34;;;;;;;;;;;19.50;62.80;;;;;;5087565;28;19920;-72
2022/05/15 07:52:59;;;;;;;;;;;19.70;62.30;;;;;;5087492;28;19908;-74
2022/05/15 07:55:25;;;;;;;;;;;19.80;62.40;;;;;;5087298;28;19919;-74
2022/05/15 07:57:51;;;;;;;;;;;20.30;62.70;;;;;;5087482;28;19978;-75
2022/05/15 08:00:17;;;;;;;;;;;20.60;62.10;;;;;;5068912;28;19947;-75
2022/05/15 08:02:43;;;;;;;;;;;20.40;61.60;;;;;;5089289;28;19961;-76
2022/05/15 08:08:00;;;;;;;;;;;19.70;61.80;;;;;;5091832;28;20270;-73
2022/05/15 08:10:26;;;;;;;;;;;19.60;62.20;;;;;;5091382;28;19920;-76
2022/05/15 08:12:52;;;;;;;;;;;19.30;62.10;;;;;;5091556;28;19954;-75
2022/05/15 08:15:17;;;;;;;;;;;19.20;62.30;;;;;;5091375;28;19912;-73
2022/05/15 08:17:43;;;;;;;;;;;19.00;62.40;;;;;;5073017;28;20388;-74
2022/05/15 08:25:39;;;;;;;;;;;18.80;63.00;;;;;;5091319;28;19915;-75
2022/05/15 08:28:04;;;;;;;;;;;18.80;63.10;;;;;;5090536;28;20266;-75
2022/05/15 08:30:31;;;;;;;;;;;18.80;63.00;;;;;;5090382;28;19916;-73
2022/05/15 08:32:57;;;;;;;;;;;18.80;63.10;;;;;;5091003;28;19912;-73
2022/05/15 08:35:22;;;;;;;;;;;18.90;63.10;;;;;;5090668;28;19908;-73
2022/05/15 08:37:48;;;;;;;;;;;19.10;62.90;;;;;;5090735;28;20509;-74
2022/05/15 08:40:14;;;;;;;;;;;19.20;63.20;;;;;;5090817;28;19912;-75
2022/05/15 08:42:39;;;;;;;;;;;19.60;63.30;;;;;;5090985;28;19912;-76
2022/05/15 08:45:08;;;;;;;;;;;20.00;62.90;;;;;;5090692;28;19991;-74
2022/05/15 08:47:38;;;;;;;;;;;20.20;62.70;;;;;;5090448;28;19965;-74
2022/05/15 08:50:04;;;;;;;;;;;20.60;63.40;;;;;;5090563;28;19923;-75
2022/05/15 08:52:35;;;;;;;;;;;22.10;64.40;;;;;;5090627;28;19942;-76
2022/05/15 08:55:06;;;;;;;;;;;24.20;64.40;;;;;;5090443;28;19943;-75
2022/05/15 08:57:41;;;;;;;;;;;26.00;63.40;;;;;;5090385;28;19912;-74
2022/05/15 09:00:10;;;;;;;;;;;26.30;61.10;;;;;;5089683;28;19994;-75
2022/05/15 09:02:38;;;;;;;;;;;25.80;60.50;;;;;;5090215;28;19929;-73
2022/05/15 09:05:04;;;;;;;;;;;25.30;60.90;;;;;;5090189;28;19908;-73
2022/05/15 09:07:49;;;;;;;;;;;25.40;61.80;;;;;;5090142;28;19969;-74
2022/05/15 09:10:33;;;;;;;;;;;25.90;61.10;;;;;;5090322;28;19934;-74
2022/05/15 09:13:16;;;;;;;;;;;25.80;60.40;;;;;;5089910;28;19908;-75
2022/05/15 09:15:56;;;;;;;;;;;25.90;60.60;;;;;;5089940;28;19908;-76
2022/05/15 09:18:22;;;;;;;;;;;25.90;60.30;;;;;;5089908;28;19916;-73
2022/05/15 09:20:57;;;;;;;;;;;25.80;60.60;;;;;;5090366;28;20364;-76
2022/05/15 09:23:29;;;;;;;;;;;25.70;60.60;;;;;;5090258;28;19908;-74
2022/05/15 09:26:10;;;;;;;;;;;25.60;60.80;;;;;;5090258;28;19908;-76
2022/05/15 09:28:44;;;;;;;;;;;26.00;62.00;;;;;;5071132;28;19958;-76
2022/05/15 09:31:20;;;;;;;;;;;26.70;61.70;;;;;;5089706;28;19912;-74
2022/05/15 09:33:54;;;;;;;;;;;27.60;61.70;;;;;;5089587;28;19908;-75
2022/05/15 09:36:35;;;;;;;;;;;28.50;60.10;;;;;;5089701;28;19912;-75
2022/05/15 09:39:07;;;;;;;;;;;29.00;59.20;;;;;;5089461;28;19908;-77
2022/05/15 09:44:43;;;;;;;;;;;29.60;58.90;;;;;;5090067;28;20221;-75
2022/05/15 09:47:25;;;;;;;;;;;29.10;58.00;;;;;;5085106;28;19920;-75
2022/05/15 09:49:50;;;;;;;;;;;29.40;58.80;;;;;;5089122;28;19908;-76
2022/05/15 09:52:21;;;;;;;;;;;28.80;57.60;;;;;;5088877;28;19916;-74
2022/05/15 09:54:49;;;;;;;;;;;28.10;57.90;;;;;;5070515;28;20014;-76
2022/05/15 09:57:17;;;;;;;;;;;27.70;58.50;;;;;;5088589;28;20335;-74
2022/05/15 09:59:50;;;;;;;;;;;27.80;58.90;;;;;;5088341;28;19975;-75
2022/05/15 10:02:20;;;;;;;;;;;27.90;58.40;;;;;;5088662;28;19912;-76
2022/05/15 10:04:48;;;;;;;;;;;27.50;57.40;;;;;;5070570;28;20154;-74
2022/05/15 10:07:27;;;;;;;;;;;27.00;57.70;;;;;;5089254;28;19930;-75
2022/05/15 10:09:53;;;;;;;;;;;26.50;57.00;;;;;;5088369;28;20400;-73
2022/05/15 10:12:24;;;;;;;;;;;25.90;57.60;;;;;;5088432;28;19996;-76
2022/05/15 10:14:55;;;;;;;;;;;25.80;58.50;;;;;;5088796;28;19967;-74
2022/05/15 10:17:21;;;;;;;;;;;26.20;59.10;;;;;;5070114;28;19943;-73
2022/05/15 10:19:52;;;;;;;;;;;26.70;58.60;;;;;;5087967;28;19912;-75
2022/05/15 10:22:25;;;;;;;;;;;26.50;57.50;;;;;;5087722;28;19952;-74
2022/05/15 10:24:52;;;;;;;;;;;26.00;57.30;;;;;;5087402;28;20362;-74
2022/05/15 10:27:23;;;;;;;;;;;25.60;57.30;;;;;;5087695;28;19983;-74
2022/05/15 10:30:05;;;;;;;;;;;25.10;57.40;;;;;;5088218;28;19909;-75
2022/05/15 10:32:33;;;;;;;;;;;24.80;57.40;;;;;;5088524;28;20000;-75
2022/05/15 10:34:59;;;;;;;;;;;24.70;57.70;;;;;;5088303;28;20011;-76
2022/05/15 10:37:44;;;;;;;;;;;24.90;58.10;;;;;;5088361;28;20003;-76
2022/05/15 10:40:28;;;;;;;;;;;25.50;58.80;;;;;;5088275;28;19920;-74
2022/05/15 10:43:01;;;;;;;;;;;26.80;59.60;;;;;;5069883;28;20349;-75
2022/05/15 10:45:36;;;;;;;;;;;27.70;58.50;;;;;;5088259;28;19908;-75
2022/05/15 10:48:20;;;;;;;;;;;27.80;58.40;;;;;;5087615;28;20259;-75
2022/05/15 10:50:57;;;;;;;;;;;28.10;58.20;;;;;;5087977;28;20322;-75
2022/05/15 10:59:13;;;;;;;;;;;28.80;56.80;;;;;;5087256;28;19954;-74
2022/05/15 11:01:57;;;;;;;;;;;28.10;57.00;;;;;;5087653;28;19961;-75
2022/05/15 11:04:33;;;;;;;;;;;27.50;57.30;;;;;;5087582;28;19969;-74
2022/05/15 11:07:09;;;;;;;;;;;27.20;57.90;;;;;;5070213;28;20386;-74
2022/05/15 11:09:44;;;;;;;;;;;27.10;57.40;;;;;;5087956;28;19982;-76
2022/05/15 11:12:27;;;;;;;;;;;26.90;57.20;;;;;;5087998;28;19912;-76
2022/05/15 11:14:56;;;;;;;;;;;27.30;58.10;;;;;;5088059;28;19908;-74
2022/05/15 11:17:25;;;;;;;;;;;28.30;57.80;;;;;;5087296;28;19908;-73
2022/05/15 11:19:52;;;;;;;;;;;28.50;57.30;;;;;;5087406;28;19934;-77
2022/05/15 11:22:31;;;;;;;;;;;28.40;56.50;;;;;;5087388;28;20024;-74
2022/05/15 11:25:15;;;;;;;;;;;28.60;57.10;;;;;;5069059;28;19912;-74
2022/05/15 11:27:53;;;;;;;;;;;29.40;57.60;;;;;;5086842;28;20068;-75
2022/05/15 11:30:29;;;;;;;;;;;30.10;57.70;;;;;;5086914;28;19912;-73
2022/05/15 11:32:55;;;;;;;;;;;30.60;57.10;;;;;;5087049;28;19945;-75
2022/05/15 11:35:21;;;;;;;;;;;30.60;56.50;;;;;;5086847;28;19930;-74
2022/05/15 11:37:55;;;;;;;;;;;30.40;55.90;;;;;;5086830;28;19919;-75
2022/05/15 11:40:33;;;;;;;;;;;30.00;56.20;;;;;;5087025;28;20415;-73
2022/05/15 11:43:00;;;;;;;;;;;29.60;55.70;;;;;;5086735;28;19908;-74
2022/05/15 11:45:28;;;;;;;;;;;29.80;55.50;;;;;;5086818;28;19938;-76
2022/05/15 11:47:58;;;;;;;;;;;30.20;55.80;;;;;;5086589;28;19925;-74
2022/05/15 11:50:30;;;;;;;;;;;30.10;55.30;;;;;;5086797;28;19928;-75
2022/05/15 11:52:55;;;;;;;;;;;29.80;55.30;;;;;;5068436;28;19919;-75
2022/05/15 11:55:36;;;;;;;;;;;29.70;55.80;;;;;;5086616;28;20144;-73
2022/05/15 11:58:10;;;;;;;;;;;29.10;55.00;;;;;;5086742;28;19908;-74
2022/05/15 12:00:39;;;;;;;;;;;28.00;54.60;;;;;;5086904;28;19912;-75
2022/05/15 12:03:24;;;;;;;;;;;27.20;54.70;;;;;;5087121;28;20330;-75
2022/05/15 12:06:04;;;;;;;;;;;26.50;55.20;;;;;;5086741;28;20049;-74
2022/05/15 12:08:32;;;;;;;;;;;26.40;56.00;;;;;;5086553;28;19909;-74
2022/05/15 12:10:59;;;;;;;;;;;26.40;55.40;;;;;;5086329;28;19919;-75
2022/05/15 12:13:30;;;;;;;;;;;26.10;54.60;;;;;;5086916;28;19912;-75
2022/05/15 12:16:15;;;;;;;;;;;25.40;54.30;;;;;;5068234;28;19909;-75
2022/05/15 12:18:41;;;;;;;;;;;24.80;54.80;;;;;;5086441;28;19927;-72
2022/05/15 12:21:07;;;;;;;;;;;24.40;55.10;;;;;;5086337;28;20265;-72
2022/05/15 12:23:35;;;;;;;;;;;23.90;55.10;;;;;;5086795;28;19908;-73
2022/05/15 12:26:09;;;;;;;;;;;23.30;55.50;;;;;;5086386;28;20278;-73
2022/05/15 12:28:53;;;;;;;;;;;22.90;55.80;;;;;;5086497;28;19998;-71
2022/05/15 12:31:38;;;;;;;;;;;22.60;56.20;;;;;;5086934;28;20290;-73
2022/05/15 12:34:10;;;;;;;;;;;22.50;56.40;;;;;;5086539;28;19941;-74
2022/05/15 12:36:37;;;;;;;;;;;22.60;56.50;;;;;;5086243;28;20003;-73
2022/05/15 12:39:03;;;;;;;;;;;22.80;56.40;;;;;;5086052;28;19932;-72
2022/05/15 12:41:32;;;;;;;;;;;23.00;56.30;;;;;;5086031;28;19923;-72
2022/05/15 12:44:00;;;;;;;;;;;23.10;56.10;;;;;;5067476;28;19908;-75
2022/05/15 12:46:28;;;;;;;;;;;23.10;55.80;;;;;;5085888;28;19912;-73
2022/05/15 12:48:53;;;;;;;;;;;23.20;56.00;;;;;;5087420;28;20303;-72
2022/05/15 12:51:33;;;;;;;;;;;23.30;56.20;;;;;;5071263;28;19938;-72
2022/05/15 12:54:00;;;;;;;;;;;23.50;56.30;;;;;;5071395;28;20253;-72
2022/05/15 12:56:36;;;;;;;;;;;23.70;56.10;;;;;;5090128;28;19908;-72
2022/05/15 12:59:18;;;;;;;;;;;23.70;56.00;;;;;;5090167;28;20278;-72
2022/05/15 13:01:45;;;;;;;;;;;23.50;55.90;;;;;;5089560;28;19912;-73
2022/05/15 13:04:16;;;;;;;;;;;23.30;56.00;;;;;;5089992;28;20354;-73
2022/05/15 13:06:48;;;;;;;;;;;23.40;56.40;;;;;;5089516;28;19991;-74
2022/05/15 13:09:19;;;;;;;;;;;23.40;56.30;;;;;;5089699;28;20008;-74
2022/05/15 13:11:46;;;;;;;;;;;23.60;56.80;;;;;;5089615;28;20421;-73
2022/05/15 13:14:27;;;;;;;;;;;24.10;56.40;;;;;;5089537;28;19908;-73
2022/05/15 13:16:53;;;;;;;;;;;24.30;56.00;;;;;;5088888;28;19950;-74
2022/05/15 13:19:29;;;;;;;;;;;24.60;56.00;;;;;;5089565;28;20318;-73
2022/05/15 13:21:56;;;;;;;;;;;24.70;56.00;;;;;;5089390;28;20362;-74
2022/05/15 13:24:23;;;;;;;;;;;24.60;55.70;;;;;;5089491;28;20427;-73
2022/05/15 13:26:49;;;;;;;;;;;24.30;55.80;;;;;;5089103;28;20295;-71
2022/05/15 13:29:18;;;;;;;;;;;24.00;55.80;;;;;;5071446;28;19923;-74
2022/05/15 13:31:44;;;;;;;;;;;23.90;55.80;;;;;;5071037;28;20019;-75
2022/05/15 13:34:12;;;;;;;;;;;23.70;56.00;;;;;;5089149;28;20049;-73
2022/05/15 13:36:47;;;;;;;;;;;23.40;56.50;;;;;;5089124;28;20351;-74
2022/05/15 13:44:49;;;;;;;;;;;23.60;56.80;;;;;;5088917;28;19954;-74
2022/05/15 13:47:15;;;;;;;;;;;23.60;56.70;;;;;;5088533;28;19922;-74
2022/05/15 13:49:42;;;;;;;;;;;23.50;56.50;;;;;;5088751;28;19912;-75
2022/05/15 13:52:21;;;;;;;;;;;23.40;56.50;;;;;;5088769;28;19923;-76
2022/05/15 13:54:47;;;;;;;;;;;23.20;56.40;;;;;;5070769;28;20382;-73
2022/05/15 13:57:13;;;;;;;;;;;22.90;56.30;;;;;;5088355;28;19916;-76
2022/05/15 13:59:43;;;;;;;;;;;22.70;56.70;;;;;;5087795;28;19908;-73
2022/05/15 14:02:12;;;;;;;;;;;22.60;56.80;;;;;;5088735;28;19912;-73
2022/05/15 14:04:39;;;;;;;;;;;22.40;56.80;;;;;;5088613;28;19912;-74
2022/05/15 14:07:05;;;;;;;;;;;22.30;56.90;;;;;;5088265;28;20010;-75
2022/05/15 14:09:49;;;;;;;;;;;22.30;57.10;;;;;;5088151;28;20333;-74
2022/05/15 14:12:16;;;;;;;;;;;22.20;57.10;;;;;;5088153;28;19916;-73
2022/05/15 14:14:51;;;;;;;;;;;22.20;57.00;;;;;;5070138;28;19999;-76
2022/05/15 14:17:24;;;;;;;;;;;22.00;57.30;;;;;;5088559;28;19946;-74
2022/05/15 14:19:57;;;;;;;;;;;22.00;57.30;;;;;;5088903;28;19962;-76
2022/05/15 14:22:23;;;;;;;;;;;21.80;57.30;;;;;;5088434;28;19996;-74
2022/05/15 14:24:48;;;;;;;;;;;21.70;57.70;;;;;;5088303;28;20584;-74
2022/05/15 14:27:15;;;;;;;;;;;21.70;57.70;;;;;;5088016;28;20369;-75
2022/05/15 14:29:41;;;;;;;;;;;21.60;57.80;;;;;;5088387;28;19916;-74
2022/05/15 14:32:08;;;;;;;;;;;21.60;57.80;;;;;;5088413;28;19916;-76
2022/05/15 14:34:34;;;;;;;;;;;21.50;57.70;;;;;;5088321;28;19927;-74
2022/05/15 14:37:00;;;;;;;;;;;21.50;57.90;;;;;;5087811;28;19957;-74
2022/05/15 14:39:25;;;;;;;;;;;21.50;57.90;;;;;;5088067;28;19908;-75
2022/05/15 14:41:51;;;;;;;;;;;21.40;57.80;;;;;;5069557;28;20362;-73
2022/05/15 14:44:16;;;;;;;;;;;21.20;58.00;;;;;;5053557;28;19920;-75
2022/05/15 14:46:43;;;;;;;;;;;21.20;58.60;;;;;;5068678;28;20325;-75
2022/05/15 14:49:10;;;;;;;;;;;21.40;58.60;;;;;;5068875;28;20235;-74
2022/05/15 14:51:37;;;;;;;;;;;21.70;58.40;;;;;;5087928;28;20401;-76
2022/05/15 14:54:04;;;;;;;;;;;21.90;58.30;;;;;;5087437;28;19908;-73